Latest Weather Observations for Cairns

IDQ60801

Issued at 6:35 pm EST Thursday 28 August 2014 (issued every 30 minutes, with the page automatically refreshed every 10 minutes)

About weather observations | Map of weather stations | Latest weather observations for QLD | Other Formats
Station Details ID: 031011 Name: CAIRNS AERO Lat: -16.87 Lon: 145.75 Height: 2.22 m
Data from the previous 72 hours. | See also: Recent months at Cairns
Date/Time
EST
Temp
°C
App
Temp
°C
Dew
Point
Rel
Hum
%
Delta-T
°C
Wind Press
QNH
hPa
Press
MSL
hPa
Rain
since 9 am
mm
Dir
 
Spd
km/h
Gust
km/h
Spd
kts
Gust
kts
28/06:30pm 20.1 17.9 10.7 54 5.1 SSE 13 19 7 10 1017.1 - 0.0
28/06:00pm 21.6 17.1 10.2 48 6.2 SE 24 30 13 16 1016.6 1016.5 0.0
28/05:30pm 22.8 17.7 9.2 42 7.3 SE 26 35 14 19 1016.3 - 0.0
28/05:00pm 23.7 17.5 7.7 36 8.4 SE 30 39 16 21 1015.9 - 0.0
28/04:30pm 24.8 18.3 4.6 27 10.1 SE 28 35 15 19 1015.7 - 0.0
28/04:00pm 25.5 19.2 3.6 24 10.8 SE 26 33 14 18 1015.4 - 0.0
28/03:30pm 25.7 19.4 5.6 27 10.3 SE 28 33 15 18 1015.2 - 0.0
28/03:00pm 25.6 18.9 5.4 27 10.3 SE 30 35 16 19 1015.2 1015.1 0.0
28/02:30pm 26.3 19.9 5.1 25 10.8 ESE 28 35 15 19 1015.6 - 0.0
28/02:00pm 25.9 19.3 4.0 24 10.9 ESE 28 35 15 19 1016.0 - 0.0
28/01:30pm 26.2 19.7 4.6 25 10.9 ESE 28 35 15 19 1016.3 - 0.0
28/01:00pm 26.1 19.4 3.7 23 11.1 ESE 28 33 15 18 1016.4 - 0.0
28/12:30pm 26.6 20.0 4.3 24 11.2 ESE 28 37 15 20 1017.0 - 0.0
28/12:00pm 26.1 19.5 4.4 24 10.9 ESE 28 37 15 20 1017.3 1017.2 0.0
28/11:30am 26.6 20.4 4.3 24 11.2 ESE 26 33 14 18 1017.8 - 0.0
28/11:00am 25.4 20.9 5.9 28 10.0 SE 19 30 10 16 1018.1 - 0.0
28/10:30am 24.4 20.6 7.7 34 8.8 S 17 22 9 12 1018.5 - 0.0
28/10:00am 24.1 20.8 8.0 35 8.5 S 15 20 8 11 1018.5 - 0.0
28/09:30am 23.6 19.6 8.1 37 8.2 SSE 19 24 10 13 1018.5 - 0.0
28/09:00am 21.7 17.7 8.4 42 7.0 SE 19 22 10 12 1018.4 1018.3 0.0
28/08:30am 18.9 19.5 11.8 63 3.9 CALM 0 0 0 0 1018.3 - 0.0
28/08:00am 16.2 15.4 11.2 72 2.7 WSW 6 11 3 6 1018.2 - 0.0
28/07:30am 14.4 13.8 11.6 83 1.5 W 6 7 3 4 1018.0 - 0.0
28/07:00am 12.8 12.1 11.3 91 0.8 WSW 6 9 3 5 1017.7 - 0.0
28/06:30am 11.7 11.2 10.9 95 0.4 SW 4 7 2 4 1017.4 - 0.0
28/06:00am 12.1 11.7 11.1 94 0.5 WNW 4 6 2 3 1017.0 1016.9 0.0
28/05:30am 12.0 12.5 11.6 97 0.2 CALM 0 6 0 3 1016.7 - 0.0
28/05:00am 11.8 12.2 11.4 97 0.2 CALM 0 0 0 0 1016.6 - 0.0
28/04:30am 12.3 12.8 11.7 96 0.3 CALM 0 0 0 0 1016.6 - 0.0
28/04:00am 12.1 12.6 11.7 97 0.2 CALM 0 0 0 0 1016.5 - 0.0
28/03:30am 12.2 12.6 11.4 95 0.4 CALM 0 0 0 0 1016.5 - 0.0
28/03:00am 12.3 12.8 11.5 95 0.4 CALM 0 0 0 0 1016.6 1016.5 0.0
28/02:30am 12.4 12.9 11.5 94 0.5 CALM 0 0 0 0 1016.6 - 0.0
28/02:00am 13.3 12.7 12.4 94 0.5 W 7 7 4 4 1016.8 - 0.0
28/01:30am 13.0 13.8 12.4 96 0.3 CALM 0 0 0 0 1017.0 - 0.0
28/01:00am 13.6 14.1 12.7 94 0.5 W 2 6 1 3 1016.9 - 0.0
28/12:30am 13.8 14.7 12.9 94 0.5 CALM 0 0 0 0 1017.2 - 0.0
28/12:00am 14.2 15.0 12.7 91 0.8 W 0 2 0 1 1017.3 1017.2 0.0
 
Date/Time
EST
Temp
°C
App
Temp
°C
Dew
Point
Rel
Hum
%
Delta-T
°C
Wind Press
QNH
hPa
Press
MSL
hPa
Rain
since 9 am
mm
Dir
 
Spd
km/h
Gust
km/h
Spd
kts
Gust
kts
27/11:30pm 13.9 12.9 12.2 89 0.9 W 9 9 5 5 1017.5 - 0.0
27/11:00pm 14.4 13.4 12.4 88 1.1 W 9 9 5 5 1017.6 - 0.0
27/10:30pm 14.8 14.5 12.8 88 1.1 W 6 7 3 4 1017.5 - 0.0
27/10:00pm 15.5 15.8 13.3 87 1.2 NNW 4 7 2 4 1017.4 - 0.0
27/09:30pm 14.7 15.1 12.5 87 1.2 NW 2 6 1 3 1017.2 - 0.0
27/09:00pm 16.4 16.3 13.4 82 1.7 W 6 9 3 5 1017.0 1016.9 0.0
27/08:30pm 18.2 18.1 13.2 72 2.8 SE 6 9 3 5 1016.8 - 0.0
27/08:00pm 19.4 19.1 13.4 68 3.4 SSE 7 11 4 6 1016.6 - 0.0
27/07:30pm 20.0 19.7 13.3 65 3.8 SW 7 11 4 6 1016.3 - 0.0
27/07:00pm 20.3 19.4 12.7 61 4.3 S 9 13 5 7 1015.9 - 0.0
27/06:30pm 20.0 19.3 11.9 59 4.5 SSE 7 9 4 5 1015.4 - 0.0
27/06:00pm 22.2 18.8 11.2 49 6.1 SE 20 26 11 14 1015.1 1015.0 0.0
27/05:30pm 23.5 19.5 8.2 37 8.1 SE 19 24 10 13 1014.7 - 0.0
27/05:00pm 24.8 22.1 8.9 36 8.6 SE 13 22 7 12 1014.3 - 0.0
27/04:30pm 25.5 20.6 7.0 30 9.7 E 22 30 12 16 1014.1 - 0.0
27/04:00pm 25.8 21.5 7.8 32 9.6 E 20 26 11 14 1013.9 - 0.0
27/03:30pm 26.7 22.3 8.9 32 9.7 E 22 30 12 16 1013.8 - 0.0
27/03:00pm 26.8 22.5 10.9 37 9.0 ENE 24 32 13 17 1013.7 1013.6 0.0
27/02:30pm 26.0 22.1 12.1 42 8.0 ENE 24 30 13 16 1014.0 - 0.0
27/02:00pm 26.1 21.8 13.3 45 7.5 NE 28 33 15 18 1014.5 - 0.0
27/01:30pm 26.8 22.9 12.0 39 8.5 ENE 24 33 13 18 1015.0 - 0.0
27/01:00pm 26.6 22.5 11.3 38 8.7 E 24 30 13 16 1015.5 - 0.0
27/12:30pm 27.0 23.1 10.9 36 9.1 ENE 22 28 12 15 1016.0 - 0.0
27/12:00pm 25.9 23.4 11.0 39 8.4 ESE 15 22 8 12 1016.5 1016.4 0.0
27/11:30am 25.6 23.7 11.7 42 7.9 ESE 13 22 7 12 1016.7 - 0.0
27/11:00am 24.8 22.7 12.4 46 7.1 ESE 15 24 8 13 1017.2 - 0.0
27/10:30am 24.5 22.6 12.9 48 6.7 SSE 15 20 8 11 1017.6 - 0.0
27/10:00am 23.5 22.0 13.1 52 6.0 S 13 19 7 10 1017.9 - 0.0
27/09:30am 22.6 20.1 12.4 52 5.8 S 17 24 9 13 1018.1 - 0.0
27/09:00am 21.3 18.3 12.4 57 5.0 ESE 20 24 11 13 1017.8 1017.7 0.0
27/08:30am 19.1 16.9 12.1 64 3.9 SE 15 20 8 11 1017.7 - 0.0
27/08:00am 17.1 15.3 12.0 72 2.8 SSE 13 20 7 11 1017.6 - 0.0
27/07:30am 16.1 15.4 12.1 77 2.2 SW 7 15 4 8 1017.4 - 0.0
27/07:00am 13.6 14.3 12.1 91 0.8 CALM 0 0 0 0 1017.0 - 0.0
27/06:30am 12.5 11.7 11.7 95 0.4 W 7 9 4 5 1016.5 - 0.0
27/06:00am 13.1 12.6 12.2 94 0.5 W 6 7 3 4 1016.3 1016.2 0.0
27/05:30am 13.2 12.5 12.1 93 0.6 W 7 7 4 4 1016.0 - 0.0
27/05:00am 13.0 13.7 12.3 95 0.4 CALM 0 0 0 0 1015.8 - 0.0
27/04:30am 13.4 12.9 12.1 92 0.7 W 6 9 3 5 1015.9 - 0.0
27/04:00am 13.1 13.9 12.4 95 0.4 CALM 0 0 0 0 1015.9 - 0.0
27/03:30am 13.6 13.1 12.7 94 0.5 W 7 9 4 5 1015.9 - 0.0
27/03:00am 14.1 13.6 12.6 91 0.8 W 7 11 4 6 1016.1 1016.0 0.0
27/02:30am 13.9 14.9 13.2 96 0.4 CALM 0 7 0 4 1016.1 - 0.0
27/02:00am 14.1 14.7 13.2 94 0.5 W 2 7 1 4 1016.3 - 0.0
27/01:30am 14.4 14.0 12.9 91 0.8 W 7 9 4 5 1016.5 - 0.0
27/01:00am 15.3 14.7 12.4 83 1.6 SSW 7 9 4 5 1016.6 - 0.0
27/12:30am 15.5 15.2 12.8 84 1.5 SE 6 9 3 5 1016.9 - 0.0
27/12:00am 15.4 16.0 13.1 86 1.3 SSE 2 7 1 4 1017.1 1017.0 0.0
 
Date/Time
EST
Temp
°C
App
Temp
°C
Dew
Point
Rel
Hum
%
Delta-T
°C
Wind Press
QNH
hPa
Press
MSL
hPa
Rain
since 9 am
mm
Dir
 
Spd
km/h
Gust
km/h
Spd
kts
Gust
kts
26/11:30pm 15.4 16.5 13.4 88 1.1 CALM 0 0 0 0 1017.1 - 0.0
26/11:00pm 15.9 17.0 13.6 86 1.3 CALM 0 0 0 0 1017.2 - 0.0
26/10:30pm 16.4 16.3 13.2 81 1.8 SE 6 9 3 5 1017.3 - 0.0
26/10:00pm 19.1 18.7 13.1 68 3.4 S 7 11 4 6 1017.3 - 0.0
26/09:30pm 19.1 18.9 13.5 70 3.2 S 7 13 4 7 1017.3 - 0.0
26/09:00pm 19.7 19.6 13.8 69 3.4 S 7 11 4 6 1017.2 1017.1 0.0
26/08:30pm 19.8 19.5 13.3 66 3.7 S 7 13 4 7 1017.1 - 0.0
26/08:00pm 19.4 18.7 13.2 67 3.5 S 9 13 5 7 1016.8 - 0.0
26/07:30pm 19.8 19.5 13.3 66 3.7 SSW 7 11 4 6 1016.4 - 0.0
26/07:00pm 19.9 19.3 13.6 67 3.6 S 9 13 5 7 1016.3 - 0.0
26/06:30pm 20.9 18.7 13.4 62 4.3 SSE 17 24 9 13 1015.9 - 0.0
26/06:00pm 21.8 18.4 12.6 56 5.2 SSE 22 30 12 16 1015.4 1015.3 0.0
26/05:30pm 23.0 19.3 11.4 48 6.5 SE 22 28 12 15 1015.2 - 0.0
26/05:00pm 24.1 19.8 10.6 42 7.5 SE 24 33 13 18 1014.9 - 0.0
26/04:30pm 24.9 19.1 9.3 37 8.5 SE 30 37 16 20 1014.6 - 0.0
26/04:00pm 25.4 19.0 6.8 30 9.7 SE 30 37 16 20 1014.5 - 0.0
26/03:30pm 25.9 18.9 5.9 27 10.3 ESE 32 41 17 22 1014.3 - 0.0
26/03:00pm 26.7 19.5 5.8 26 10.8 ESE 33 39 18 21 1014.3 1014.2 0.0
26/02:30pm 27.2 20.7 6.4 26 10.9 ESE 30 37 16 20 1014.4 - 0.0
26/02:00pm 26.7 19.8 6.4 27 10.6 ESE 32 39 17 21 1014.7 - 0.0
26/01:30pm 26.7 19.9 7.0 28 10.4 ESE 32 39 17 21 1015.0 - 0.0
26/01:00pm 26.8 19.9 7.2 28 10.4 SE 33 41 18 22 1015.5 - 0.0
26/12:30pm 27.6 21.0 7.7 28 10.7 ESE 32 41 17 22 1015.9 - 0.0
26/12:00pm 26.6 19.5 6.5 27 10.5 SE 33 46 18 25 1016.2 1016.1 0.0
26/11:30am 26.1 19.7 9.5 35 9.1 SE 33 41 18 22 1016.7 - 0.0
26/11:00am 25.6 19.5 9.8 37 8.7 SE 32 39 17 21 1017.1 - 0.0
26/10:30am 24.6 18.9 11.0 42 7.6 SE 32 41 17 22 1017.4 - 0.0
26/10:00am 25.1 22.7 14.5 51 6.3 SSE 20 32 11 17 1017.9 - 0.0
26/09:30am 23.5 21.5 13.9 55 5.6 SSE 17 28 9 15 1017.9 - 0.0
26/09:00am 23.0 20.9 13.7 55 5.4 S 17 26 9 14 1017.8 1017.7 0.0
26/08:30am 22.4 20.2 13.4 56 5.2 S 17 22 9 12 1017.6 - 0.0
26/08:00am 21.4 20.1 13.6 61 4.5 SSE 13 20 7 11 1017.4 - 0.0
26/07:30am 18.5 18.4 13.8 74 2.7 SE 7 15 4 8 1017.2 - 0.0
26/07:00am 16.4 15.9 13.7 84 1.5 SE 9 13 5 7 1016.9 - 0.0
26/06:30am 16.1 14.6 13.2 83 1.6 SE 13 17 7 9 1016.6 - 0.0
26/06:00am 16.4 15.4 13.4 82 1.7 ESE 11 17 6 9 1016.3 1016.2 0.0
26/05:30am 16.1 14.6 13.2 83 1.6 SE 13 17 7 9 1016.1 - 0.0
26/05:00am 16.1 15.8 13.2 83 1.6 S 7 13 4 7 1015.8 - 0.0
26/04:30am 16.2 15.5 13.3 83 1.6 ESE 9 19 5 10 1015.7 - 0.0
26/04:00am 16.6 15.1 13.0 79 2.0 SSE 13 19 7 10 1015.7 - 0.0
26/03:30am 16.9 14.1 13.1 78 2.1 SSE 20 26 11 14 1015.8 - 0.0
26/03:00am 16.7 13.6 13.5 81 1.8 SSE 22 26 12 14 1015.8 1015.7 0.0
26/02:30am 16.3 13.6 13.6 84 1.5 SE 20 26 11 14 1015.9 - 0.0
26/02:00am 16.6 14.2 13.8 83 1.6 SE 19 22 10 12 1016.3 - 0.0
26/01:30am 16.7 14.1 13.9 83 1.6 SE 20 24 11 13 1016.5 - 0.0
26/01:00am 16.9 14.3 13.9 82 1.7 SE 20 26 11 14 1016.7 - 0.0
26/12:30am 17.7 15.3 13.8 78 2.2 SSE 19 22 10 12 1017.2 - 0.0
26/12:00am 18.1 16.0 13.7 75 2.5 SSE 17 22 9 12 1017.3 1017.2 0.0
 
Date/Time
EST
Temp
°C
App
Temp
°C
Dew
Point
Rel
Hum
%
Delta-T
°C
Wind Press
QNH
hPa
Press
MSL
hPa
Rain
since 9 am
mm
Dir
 
Spd
km/h
Gust
km/h
Spd
kts
Gust
kts
25/11:30pm 18.1 16.6 14.3 78 2.2 SSE 15 22 8 12 1017.5 - 0.0
25/11:00pm 19.0 17.4 13.9 72 2.9 S 15 22 8 12 1017.6 - 0.0
25/10:30pm 18.3 17.0 14.7 79 2.1 SSE 15 17 8 9 1017.9 - 0.0
25/10:00pm 19.6 18.4 14.0 70 3.2 SSE 13 17 7 9 1018.1 - 0.0
25/09:30pm 19.9 19.6 14.4 70 3.2 S 9 13 5 7 1018.2 - 0.0
25/09:00pm 20.0 19.4 14.7 71 3.1 SSW 11 19 6 10 1018.3 1018.2 0.0
25/08:30pm 20.1 19.9 14.8 71 3.1 S 9 19 5 10 1018.3 - 0.0
25/08:00pm 20.4 19.5 14.8 70 3.3 S 13 19 7 10 1018.1 - 0.0
25/07:30pm 20.5 19.7 15.1 71 3.2 S 13 24 7 13 1017.7 - 0.0
25/07:00pm 21.1 20.0 15.2 69 3.5 S 15 28 8 15 1017.3 - 0.0

Other Formats:

Comma delimited format used in spreadsheet applications
http://www.bom.gov.au/fwo/IDQ60801/IDQ60801.94287.axf

JavaScript Object Notation format (JSON) in row-major order
http://www.bom.gov.au/fwo/IDQ60801/IDQ60801.94287.json